sensor_id;sensor_type;location;lat;lon;timestamp;pressure;altitude;pressure_sealevel;temperature;humidity
83492;BME280;73661;56.120;12.302;2024-03-02T00:00:24;100781.53;;;12.31;61.49
83492;BME280;73661;56.120;12.302;2024-03-02T00:02:51;100775.44;;;12.24;62.08
83492;BME280;73661;56.120;12.302;2024-03-02T00:05:18;100778.03;;;12.58;60.48
83492;BME280;73661;56.120;12.302;2024-03-02T00:10:24;100778.75;;;11.63;63.12
83492;BME280;73661;56.120;12.302;2024-03-02T00:12:55;100770.13;;;12.80;60.41
83492;BME280;73661;56.120;12.302;2024-03-02T00:17:59;100767.53;;;12.50;61.34
83492;BME280;73661;56.120;12.302;2024-03-02T00:20:25;100766.69;;;12.40;60.95
83492;BME280;73661;56.120;12.302;2024-03-02T00:23:15;100757.97;;;12.14;61.45
83492;BME280;73661;56.120;12.302;2024-03-02T00:33:17;100750.03;;;11.72;63.28
83492;BME280;73661;56.120;12.302;2024-03-02T00:35:44;100744.88;;;11.92;62.61
83492;BME280;73661;56.120;12.302;2024-03-02T00:38:10;100740.31;;;11.33;63.63
83492;BME280;73661;56.120;12.302;2024-03-02T00:40:37;100740.25;;;11.16;64.15
83492;BME280;73661;56.120;12.302;2024-03-02T00:43:03;100744.34;;;10.64;67.25
83492;BME280;73661;56.120;12.302;2024-03-02T00:45:29;100739.63;;;12.03;62.18
83492;BME280;73661;56.120;12.302;2024-03-02T00:47:55;100737.88;;;11.88;62.43
83492;BME280;73661;56.120;12.302;2024-03-02T00:50:21;100737.66;;;11.18;63.74
83492;BME280;73661;56.120;12.302;2024-03-02T00:52:48;100732.66;;;12.23;60.96
83492;BME280;73661;56.120;12.302;2024-03-02T00:55:14;100743.03;;;11.61;62.66
83492;BME280;73661;56.120;12.302;2024-03-02T00:57:40;100723.81;;;12.95;60.03
83492;BME280;73661;56.120;12.302;2024-03-02T01:00:07;100721.22;;;12.89;58.37
83492;BME280;73661;56.120;12.302;2024-03-02T01:02:35;100721.97;;;13.29;57.16
83492;BME280;73661;56.120;12.302;2024-03-02T01:05:01;100719.47;;;12.89;58.14
83492;BME280;73661;56.120;12.302;2024-03-02T01:07:27;100716.75;;;13.26;57.15
83492;BME280;73661;56.120;12.302;2024-03-02T01:09:53;100723.97;;;12.24;60.29
83492;BME280;73661;56.120;12.302;2024-03-02T01:12:19;100715.19;;;11.89;61.01
83492;BME280;73661;56.120;12.302;2024-03-02T01:14:44;100710.84;;;12.15;61.69
83492;BME280;73661;56.120;12.302;2024-03-02T01:17:10;100712.63;;;11.98;60.29
83492;BME280;73661;56.120;12.302;2024-03-02T01:19:36;100699.38;;;11.34;62.00
83492;BME280;73661;56.120;12.302;2024-03-02T01:22:02;100705.53;;;11.46;62.48
83492;BME280;73661;56.120;12.302;2024-03-02T01:24:27;100693.41;;;12.08;60.44
83492;BME280;73661;56.120;12.302;2024-03-02T01:26:53;100698.59;;;11.68;60.58
83492;BME280;73661;56.120;12.302;2024-03-02T01:29:19;100695.88;;;12.92;58.64
83492;BME280;73661;56.120;12.302;2024-03-02T01:31:45;100696.00;;;12.23;58.03
83492;BME280;73661;56.120;12.302;2024-03-02T01:34:10;100703.53;;;13.46;55.72
83492;BME280;73661;56.120;12.302;2024-03-02T01:36:38;100703.69;;;13.07;55.99
83492;BME280;73661;56.120;12.302;2024-03-02T01:39:03;100693.09;;;13.35;55.92
83492;BME280;73661;56.120;12.302;2024-03-02T01:41:34;100692.50;;;12.55;57.52
83492;BME280;73661;56.120;12.302;2024-03-02T01:44:00;100703.50;;;13.52;55.34
83492;BME280;73661;56.120;12.302;2024-03-02T01:46:25;100690.34;;;13.55;54.08
83492;BME280;73661;56.120;12.302;2024-03-02T01:48:51;100690.94;;;13.95;53.72
83492;BME280;73661;56.120;12.302;2024-03-02T01:51:17;100675.44;;;13.65;54.55
83492;BME280;73661;56.120;12.302;2024-03-02T01:53:43;100686.06;;;13.43;54.83
83492;BME280;73661;56.120;12.302;2024-03-02T01:56:08;100674.69;;;13.43;54.24
83492;BME280;73661;56.120;12.302;2024-03-02T01:58:34;100678.59;;;11.98;59.22
83492;BME280;73661;56.120;12.302;2024-03-02T02:01:00;100674.94;;;12.88;57.43
83492;BME280;73661;56.120;12.302;2024-03-02T02:03:26;100674.59;;;13.59;55.07
83492;BME280;73661;56.120;12.302;2024-03-02T02:05:51;100677.47;;;13.12;56.04
83492;BME280;73661;56.120;12.302;2024-03-02T02:08:17;100671.38;;;13.02;56.17
83492;BME280;73661;56.120;12.302;2024-03-02T02:10:43;100676.56;;;13.25;55.81
83492;BME280;73661;56.120;12.302;2024-03-02T02:13:09;100680.34;;;12.20;59.13
83492;BME280;73661;56.120;12.302;2024-03-02T02:15:35;100671.53;;;12.64;58.35
83492;BME280;73661;56.120;12.302;2024-03-02T02:18:02;100670.69;;;11.55;59.18
83492;BME280;73661;56.120;12.302;2024-03-02T02:20:29;100673.31;;;11.60;60.00
83492;BME280;73661;56.120;12.302;2024-03-02T02:23:02;100658.47;;;12.41;57.98
83492;BME280;73661;56.120;12.302;2024-03-02T02:25:29;100666.38;;;12.20;58.44
83492;BME280;73661;56.120;12.302;2024-03-02T02:27:56;100675.91;;;11.60;59.05
83492;BME280;73661;56.120;12.302;2024-03-02T02:30:25;100667.19;;;11.70;60.03
83492;BME280;73661;56.120;12.302;2024-03-02T02:32:51;100665.41;;;11.25;61.19
83492;BME280;73661;56.120;12.302;2024-03-02T02:35:17;100661.09;;;11.51;61.01
83492;BME280;73661;56.120;12.302;2024-03-02T02:37:43;100660.94;;;10.96;61.73
83492;BME280;73661;56.120;12.302;2024-03-02T02:40:10;100645.44;;;12.27;58.71
83492;BME280;73661;56.120;12.302;2024-03-02T02:42:36;100644.56;;;12.22;57.96
83492;BME280;73661;56.120;12.302;2024-03-02T02:45:02;100645.47;;;11.92;58.90
83492;BME280;73661;56.120;12.302;2024-03-02T02:47:29;100639.34;;;11.72;58.85
83492;BME280;73661;56.120;12.302;2024-03-02T02:49:55;100635.88;;;11.81;58.28
83492;BME280;73661;56.120;12.302;2024-03-02T02:52:21;100649.69;;;11.22;60.03
83492;BME280;73661;56.120;12.302;2024-03-02T02:54:46;100645.41;;;11.60;60.43
83492;BME280;73661;56.120;12.302;2024-03-02T02:57:12;100648.84;;;11.35;60.50
83492;BME280;73661;56.120;12.302;2024-03-02T02:59:38;100643.72;;;11.99;58.06
83492;BME280;73661;56.120;12.302;2024-03-02T03:02:03;100637.56;;;12.35;57.21
83492;BME280;73661;56.120;12.302;2024-03-02T03:04:29;100629.66;;;12.49;56.74
83492;BME280;73661;56.120;12.302;2024-03-02T03:06:55;100631.47;;;12.10;57.96
83492;BME280;73661;56.120;12.302;2024-03-02T03:09:20;100620.88;;;12.68;56.37
83492;BME280;73661;56.120;12.302;2024-03-02T03:11:46;100629.41;;;13.10;55.04
83492;BME280;73661;56.120;12.302;2024-03-02T03:14:12;100623.44;;;12.82;56.68
83492;BME280;73661;56.120;12.302;2024-03-02T03:16:38;100620.72;;;13.06;56.12
83492;BME280;73661;56.120;12.302;2024-03-02T03:19:03;100619.78;;;13.10;55.26
83492;BME280;73661;56.120;12.302;2024-03-02T03:21:29;100620.84;;;12.77;55.49
83492;BME280;73661;56.120;12.302;2024-03-02T03:23:55;100613.97;;;12.47;56.51
83492;BME280;73661;56.120;12.302;2024-03-02T03:26:20;100613.06;;;12.58;56.97
83492;BME280;73661;56.120;12.302;2024-03-02T03:28:46;100603.59;;;11.94;57.93
83492;BME280;73661;56.120;12.302;2024-03-02T03:31:12;100605.16;;;12.71;56.35
83492;BME280;73661;56.120;12.302;2024-03-02T03:33:38;100605.31;;;12.25;57.42
83492;BME280;73661;56.120;12.302;2024-03-02T03:36:03;100607.97;;;11.98;57.46
83492;BME280;73661;56.120;12.302;2024-03-02T03:38:29;100597.50;;;11.93;58.62
83492;BME280;73661;56.120;12.302;2024-03-02T03:40:56;100601.81;;;12.28;57.25
83492;BME280;73661;56.120;12.302;2024-03-02T03:43:21;100603.59;;;11.43;59.79
83492;BME280;73661;56.120;12.302;2024-03-02T03:45:47;100605.31;;;11.75;58.75
83492;BME280;73661;56.120;12.302;2024-03-02T03:48:13;100605.28;;;12.38;56.58
83492;BME280;73661;56.120;12.302;2024-03-02T03:50:38;100598.88;;;13.03;55.23
83492;BME280;73661;56.120;12.302;2024-03-02T03:53:05;100600.81;;;12.61;54.96
83492;BME280;73661;56.120;12.302;2024-03-02T03:55:30;100609.31;;;13.14;54.09
83492;BME280;73661;56.120;12.302;2024-03-02T03:57:56;100608.59;;;12.82;54.50
83492;BME280;73661;56.120;12.302;2024-03-02T04:00:22;100596.47;;;12.60;55.52
83492;BME280;73661;56.120;12.302;2024-03-02T04:02:47;100609.28;;;13.20;54.20
83492;BME280;73661;56.120;12.302;2024-03-02T04:05:13;100600.59;;;13.07;54.15
83492;BME280;73661;56.120;12.302;2024-03-02T04:07:39;100605.75;;;13.24;53.53
83492;BME280;73661;56.120;12.302;2024-03-02T04:10:09;100591.91;;;13.00;54.53
83492;BME280;73661;56.120;12.302;2024-03-02T04:12:36;100601.78;;;12.39;55.67
83492;BME280;73661;56.120;12.302;2024-03-02T04:15:07;100593.00;;;12.55;56.33
83492;BME280;73661;56.120;12.302;2024-03-02T04:17:33;100586.03;;;12.54;55.32
83492;BME280;73661;56.120;12.302;2024-03-02T04:20:00;100584.34;;;12.32;56.52
83492;BME280;73661;56.120;12.302;2024-03-02T04:22:27;100589.38;;;12.83;54.85
83492;BME280;73661;56.120;12.302;2024-03-02T04:24:52;100583.06;;;13.20;53.99
83492;BME280;73661;56.120;12.302;2024-03-02T04:27:19;100588.25;;;13.29;53.05
83492;BME280;73661;56.120;12.302;2024-03-02T04:29:44;100587.59;;;12.92;54.22
83492;BME280;73661;56.120;12.302;2024-03-02T04:32:10;100587.69;;;12.73;55.39
83492;BME280;73661;56.120;12.302;2024-03-02T04:34:36;100592.06;;;12.64;55.91
83492;BME280;73661;56.120;12.302;2024-03-02T04:37:01;100585.81;;;13.00;54.45
83492;BME280;73661;56.120;12.302;2024-03-02T04:39:27;100580.03;;;12.20;57.69
83492;BME280;73661;56.120;12.302;2024-03-02T04:41:53;100579.09;;;12.44;57.61
83492;BME280;73661;56.120;12.302;2024-03-02T04:44:18;100581.56;;;12.74;56.18
83492;BME280;73661;56.120;12.302;2024-03-02T04:46:44;100583.41;;;12.48;56.76
83492;BME280;73661;56.120;12.302;2024-03-02T04:49:10;100587.81;;;12.37;57.05
83492;BME280;73661;56.120;12.302;2024-03-02T04:51:35;100586.16;;;12.13;58.09
83492;BME280;73661;56.120;12.302;2024-03-02T04:54:01;100583.53;;;11.55;59.32
83492;BME280;73661;56.120;12.302;2024-03-02T04:56:27;100597.28;;;10.68;62.40
83492;BME280;73661;56.120;12.302;2024-03-02T04:59:10;100593.13;;;11.74;59.47
83492;BME280;73661;56.120;12.302;2024-03-02T05:01:36;100594.59;;;10.50;63.32
83492;BME280;73661;56.120;12.302;2024-03-02T05:04:02;100601.19;;;9.90;66.70
83492;BME280;73661;56.120;12.302;2024-03-02T05:06:27;100606.88;;;10.64;64.76
83492;BME280;73661;56.120;12.302;2024-03-02T05:08:53;100597.00;;;10.13;65.00
83492;BME280;73661;56.120;12.302;2024-03-02T05:11:19;100604.22;;;10.60;65.01
83492;BME280;73661;56.120;12.302;2024-03-02T05:14:16;100583.53;;;11.55;60.95
83492;BME280;73661;56.120;12.302;2024-03-02T05:16:41;100584.41;;;11.43;61.07
83492;BME280;73661;56.120;12.302;2024-03-02T05:19:08;100599.97;;;10.85;63.50
83492;BME280;73661;56.120;12.302;2024-03-02T05:21:34;100597.47;;;11.63;60.90
83492;BME280;73661;56.120;12.302;2024-03-02T05:24:00;100598.09;;;10.50;64.46
83492;BME280;73661;56.120;12.302;2024-03-02T05:26:25;100601.78;;;11.16;63.62
83492;BME280;73661;56.120;12.302;2024-03-02T05:28:51;100608.63;;;10.70;64.84
83492;BME280;73661;56.120;12.302;2024-03-02T05:31:17;100603.50;;;11.02;64.12
83492;BME280;73661;56.120;12.302;2024-03-02T05:33:43;100595.69;;;11.05;64.88
83492;BME280;73661;56.120;12.302;2024-03-02T05:36:09;100596.59;;;11.50;63.55
83492;BME280;73661;56.120;12.302;2024-03-02T05:38:35;100598.16;;;10.66;66.33
83492;BME280;73661;56.120;12.302;2024-03-02T05:41:01;100597.16;;;10.39;66.99
83492;BME280;73661;56.120;12.302;2024-03-02T05:43:27;100601.56;;;10.46;67.79
83492;BME280;73661;56.120;12.302;2024-03-02T05:45:52;100600.66;;;10.38;67.56
83492;BME280;73661;56.120;12.302;2024-03-02T05:48:18;100597.28;;;10.67;67.55
83492;BME280;73661;56.120;12.302;2024-03-02T05:50:44;100599.09;;;10.77;68.41
83492;BME280;73661;56.120;12.302;2024-03-02T05:53:10;100608.66;;;10.82;67.50
83492;BME280;73661;56.120;12.302;2024-03-02T05:55:35;100596.59;;;11.26;66.82
83492;BME280;73661;56.120;12.302;2024-03-02T05:58:01;100606.88;;;10.74;68.32
83492;BME280;73661;56.120;12.302;2024-03-02T06:00:45;100599.13;;;10.94;67.52
83492;BME280;73661;56.120;12.302;2024-03-02T06:03:11;100612.97;;;10.67;69.11
83492;BME280;73661;56.120;12.302;2024-03-02T06:05:37;100609.59;;;10.90;67.37
83492;BME280;73661;56.120;12.302;2024-03-02T06:08:03;100614.72;;;10.75;68.76
83492;BME280;73661;56.120;12.302;2024-03-02T06:10:29;100605.84;;;10.35;69.67
83492;BME280;73661;56.120;12.302;2024-03-02T06:12:55;100611.13;;;10.47;69.91
83492;BME280;73661;56.120;12.302;2024-03-02T06:15:20;100607.88;;;11.09;68.37
83492;BME280;73661;56.120;12.302;2024-03-02T06:17:46;100608.47;;;10.36;70.24
83492;BME280;73661;56.120;12.302;2024-03-02T06:20:12;100611.41;;;11.50;66.33
83492;BME280;73661;56.120;12.302;2024-03-02T06:22:38;100609.69;;;12.14;65.09
83492;BME280;73661;56.120;12.302;2024-03-02T06:25:04;100610.56;;;11.77;65.36
83492;BME280;73661;56.120;12.302;2024-03-02T06:27:30;100613.19;;;11.80;64.72
83492;BME280;73661;56.120;12.302;2024-03-02T06:29:55;100614.00;;;11.11;67.92
83492;BME280;73661;56.120;12.302;2024-03-02T06:32:21;100616.66;;;11.40;66.51
83492;BME280;73661;56.120;12.302;2024-03-02T06:34:48;100615.25;;;10.15;71.39
83492;BME280;73661;56.120;12.302;2024-03-02T06:37:14;100619.16;;;10.90;68.39
83492;BME280;73661;56.120;12.302;2024-03-02T06:39:41;100613.78;;;10.62;68.86
83492;BME280;73661;56.120;12.302;2024-03-02T06:42:07;100610.41;;;10.88;69.10
83492;BME280;73661;56.120;12.302;2024-03-02T06:44:34;100605.31;;;11.34;67.22
83492;BME280;73661;56.120;12.302;2024-03-02T06:46:59;100605.94;;;10.53;69.06
83492;BME280;73661;56.120;12.302;2024-03-02T06:49:25;100608.63;;;10.72;68.91
83492;BME280;73661;56.120;12.302;2024-03-02T06:51:51;100605.25;;;10.97;68.82
83492;BME280;73661;56.120;12.302;2024-03-02T06:54:17;100613.94;;;10.93;69.73
83492;BME280;73661;56.120;12.302;2024-03-02T06:56:42;100603.97;;;10.19;70.90
83492;BME280;73661;56.120;12.302;2024-03-02T06:59:08;100611.13;;;10.46;70.40
83492;BME280;73661;56.120;12.302;2024-03-02T07:01:34;100619.09;;;10.81;70.74
83492;BME280;73661;56.120;12.302;2024-03-02T07:04:00;100611.34;;;11.08;68.63
83492;BME280;73661;56.120;12.302;2024-03-02T07:06:25;100608.34;;;10.18;71.68
83492;BME280;73661;56.120;12.302;2024-03-02T07:08:51;100612.78;;;10.30;71.47
83492;BME280;73661;56.120;12.302;2024-03-02T07:11:17;100617.97;;;10.27;70.62
83492;BME280;73661;56.120;12.302;2024-03-02T07:13:42;100619.06;;;10.76;69.29
83492;BME280;73661;56.120;12.302;2024-03-02T07:16:08;100626.91;;;10.75;70.05
83492;BME280;73661;56.120;12.302;2024-03-02T07:18:46;100618.34;;;11.29;69.19
83492;BME280;73661;56.120;12.302;2024-03-02T07:21:17;100624.44;;;11.11;69.21
83492;BME280;73661;56.120;12.302;2024-03-02T07:23:43;100619.16;;;10.99;69.80
83492;BME280;73661;56.120;12.302;2024-03-02T07:26:09;100618.41;;;11.48;67.08
83492;BME280;73661;56.120;12.302;2024-03-02T07:28:35;100616.66;;;11.53;67.45
83492;BME280;73661;56.120;12.302;2024-03-02T07:31:02;100614.84;;;11.07;68.97
83492;BME280;73661;56.120;12.302;2024-03-02T07:33:30;100622.59;;;10.80;69.86
83492;BME280;73661;56.120;12.302;2024-03-02T07:35:57;100616.72;;;11.91;66.72
83492;BME280;73661;56.120;12.302;2024-03-02T07:38:24;100614.78;;;10.87;69.71
83492;BME280;73661;56.120;12.302;2024-03-02T07:40:50;100611.41;;;11.56;68.23
83492;BME280;73661;56.120;12.302;2024-03-02T07:43:17;100621.88;;;11.33;68.82
83492;BME280;73661;56.120;12.302;2024-03-02T07:45:43;100614.91;;;11.61;67.53
83492;BME280;73661;56.120;12.302;2024-03-02T07:48:09;100626.28;;;12.04;66.62
83492;BME280;73661;56.120;12.302;2024-03-02T07:50:35;100629.72;;;11.42;67.35
83492;BME280;73661;56.120;12.302;2024-03-02T07:53:01;100630.56;;;11.24;68.83
83492;BME280;73661;56.120;12.302;2024-03-02T07:55:27;100634.94;;;11.42;68.90
83492;BME280;73661;56.120;12.302;2024-03-02T07:57:52;100629.69;;;11.33;68.15
83492;BME280;73661;56.120;12.302;2024-03-02T08:00:18;100636.72;;;11.72;67.60
83492;BME280;73661;56.120;12.302;2024-03-02T08:02:44;100627.09;;;11.40;68.32
83492;BME280;73661;56.120;12.302;2024-03-02T08:05:10;100634.97;;;11.54;67.61
83492;BME280;73661;56.120;12.302;2024-03-02T08:07:36;100627.13;;;11.68;68.00
83492;BME280;73661;56.120;12.302;2024-03-02T08:10:02;100630.59;;;11.45;67.50
83492;BME280;73661;56.120;12.302;2024-03-02T08:12:28;100636.72;;;11.60;68.07
83492;BME280;73661;56.120;12.302;2024-03-02T08:14:54;100626.25;;;11.64;67.93
83492;BME280;73661;56.120;12.302;2024-03-02T08:17:19;100624.47;;;11.27;68.12
83492;BME280;73661;56.120;12.302;2024-03-02T08:19:45;100621.00;;;11.77;67.17
83492;BME280;73661;56.120;12.302;2024-03-02T08:22:14;100624.44;;;12.46;65.42
83492;BME280;73661;56.120;12.302;2024-03-02T08:24:40;100626.28;;;12.04;66.11
83492;BME280;73661;56.120;12.302;2024-03-02T08:27:06;100626.19;;;12.41;65.30
83492;BME280;73661;56.120;12.302;2024-03-02T08:29:32;100634.97;;;12.20;65.23
83492;BME280;73661;56.120;12.302;2024-03-02T08:31:58;100643.72;;;11.85;67.51
83492;BME280;73661;56.120;12.302;2024-03-02T08:34:23;100640.22;;;12.12;66.03
83492;BME280;73661;56.120;12.302;2024-03-02T08:36:49;100643.72;;;11.88;66.74
83492;BME280;73661;56.120;12.302;2024-03-02T08:39:15;100658.41;;;11.19;69.48
83492;BME280;73661;56.120;12.302;2024-03-02T08:41:44;100654.03;;;11.10;70.57
83492;BME280;73661;56.120;12.302;2024-03-02T08:44:11;100657.47;;;11.00;70.01
83492;BME280;73661;56.120;12.302;2024-03-02T08:46:37;100657.50;;;11.05;69.32
83492;BME280;73661;56.120;12.302;2024-03-02T08:49:04;100648.78;;;11.00;69.81
83492;BME280;73661;56.120;12.302;2024-03-02T08:51:30;100654.97;;;11.48;68.06
83492;BME280;73661;56.120;12.302;2024-03-02T08:53:57;100657.47;;;11.03;69.31
83492;BME280;73661;56.120;12.302;2024-03-02T08:56:24;100667.88;;;10.86;70.00
83492;BME280;73661;56.120;12.302;2024-03-02T08:58:50;100663.69;;;11.46;69.31
83492;BME280;73661;56.120;12.302;2024-03-02T09:01:17;100667.94;;;11.06;69.75
83492;BME280;73661;56.120;12.302;2024-03-02T09:03:43;100670.59;;;11.11;69.17
83492;BME280;73661;56.120;12.302;2024-03-02T09:06:13;100668.75;;;10.96;70.12
83492;BME280;73661;56.120;12.302;2024-03-02T09:08:39;100655.59;;;10.64;71.60
83492;BME280;73661;56.120;12.302;2024-03-02T09:11:06;100665.47;;;11.67;68.16
83492;BME280;73661;56.120;12.302;2024-03-02T09:13:33;100672.22;;;10.86;70.06
83492;BME280;73661;56.120;12.302;2024-03-02T09:15:59;100667.25;;;11.81;68.08
83492;BME280;73661;56.120;12.302;2024-03-02T09:18:24;100671.44;;;11.05;70.70
83492;BME280;73661;56.120;12.302;2024-03-02T09:20:50;100660.19;;;11.32;68.73
83492;BME280;73661;56.120;12.302;2024-03-02T09:23:16;100651.56;;;11.88;66.86
83492;BME280;73661;56.120;12.302;2024-03-02T09:25:42;100665.25;;;10.88;70.32
83492;BME280;73661;56.120;12.302;2024-03-02T09:28:07;100665.44;;;11.38;69.65
83492;BME280;73661;56.120;12.302;2024-03-02T09:30:33;100663.38;;;10.58;70.96
83492;BME280;73661;56.120;12.302;2024-03-02T09:32:59;100667.00;;;10.87;70.93
83492;BME280;73661;56.120;12.302;2024-03-02T09:35:24;100668.56;;;10.52;72.12
83492;BME280;73661;56.120;12.302;2024-03-02T09:37:50;100668.72;;;10.79;71.26
83492;BME280;73661;56.120;12.302;2024-03-02T09:40:16;100668.00;;;11.28;69.84
83492;BME280;73661;56.120;12.302;2024-03-02T09:42:43;100666.88;;;10.61;72.04
83492;BME280;73661;56.120;12.302;2024-03-02T09:45:11;100665.84;;;10.35;72.71
83492;BME280;73661;56.120;12.302;2024-03-02T09:47:38;100664.41;;;10.92;71.17
83492;BME280;73661;56.120;12.302;2024-03-02T09:50:04;100662.44;;;10.48;72.26
83492;BME280;73661;56.120;12.302;2024-03-02T09:52:30;100668.72;;;10.78;71.40
83492;BME280;73661;56.120;12.302;2024-03-02T09:54:57;100670.59;;;11.15;70.71
83492;BME280;73661;56.120;12.302;2024-03-02T09:57:22;100667.19;;;11.38;69.36
83492;BME280;73661;56.120;12.302;2024-03-02T09:59:48;100670.50;;;10.93;70.53
83492;BME280;73661;56.120;12.302;2024-03-02T10:02:14;100672.75;;;10.24;72.16
83492;BME280;73661;56.120;12.302;2024-03-02T10:04:40;100689.66;;;10.93;71.21
83492;BME280;73661;56.120;12.302;2024-03-02T10:07:16;100677.31;;;10.63;70.95
83492;BME280;73661;56.120;12.302;2024-03-02T10:09:44;100685.13;;;10.61;72.22
83492;BME280;73661;56.120;12.302;2024-03-02T10:12:12;100684.09;;;10.32;72.47
83492;BME280;73661;56.120;12.302;2024-03-02T10:14:39;100681.88;;;11.04;71.31
83492;BME280;73661;56.120;12.302;2024-03-02T10:17:08;100682.75;;;11.06;70.98
83492;BME280;73661;56.120;12.302;2024-03-02T10:19:35;100674.41;;;10.22;73.36
83492;BME280;73661;56.120;12.302;2024-03-02T10:22:06;100682.66;;;10.87;71.93
83492;BME280;73661;56.120;12.302;2024-03-02T10:24:41;100677.72;;;11.82;69.23
83492;BME280;73661;56.120;12.302;2024-03-02T10:27:17;100679.31;;;11.19;70.05
83492;BME280;73661;56.120;12.302;2024-03-02T10:29:46;100680.22;;;11.26;70.67
83492;BME280;73661;56.120;12.302;2024-03-02T10:32:12;100687.19;;;11.24;70.14
83492;BME280;73661;56.120;12.302;2024-03-02T10:34:43;100687.31;;;12.14;67.59
83492;BME280;73661;56.120;12.302;2024-03-02T10:37:11;100678.75;;;10.21;72.52
83492;BME280;73661;56.120;12.302;2024-03-02T10:39:38;100688.03;;;11.29;69.80
83492;BME280;73661;56.120;12.302;2024-03-02T10:42:08;100681.75;;;10.78;71.20
83492;BME280;73661;56.120;12.302;2024-03-02T10:44:35;100690.63;;;11.19;71.37
83492;BME280;73661;56.120;12.302;2024-03-02T10:47:04;100679.72;;;10.25;73.39
83492;BME280;73661;56.120;12.302;2024-03-02T10:49:31;100681.81;;;10.93;71.76
83492;BME280;73661;56.120;12.302;2024-03-02T10:52:01;100678.25;;;10.76;72.56
83492;BME280;73661;56.120;12.302;2024-03-02T10:54:27;100678.53;;;11.52;70.65
83492;BME280;73661;56.120;12.302;2024-03-02T10:57:04;100685.94;;;10.44;73.68
83492;BME280;73661;56.120;12.302;2024-03-02T10:59:35;100685.47;;;11.50;70.67
83492;BME280;73661;56.120;12.302;2024-03-02T11:02:04;100693.91;;;10.71;73.05
83492;BME280;73661;56.120;12.302;2024-03-02T11:04:32;100686.88;;;10.59;73.09
83492;BME280;73661;56.120;12.302;2024-03-02T11:07:21;100703.88;;;11.85;69.41
83492;BME280;73661;56.120;12.302;2024-03-02T11:09:59;100692.47;;;11.69;68.92
83492;BME280;73661;56.120;12.302;2024-03-02T11:12:29;100690.53;;;10.92;71.21
83492;BME280;73661;56.120;12.302;2024-03-02T11:14:55;100689.53;;;10.64;72.83
83492;BME280;73661;56.120;12.302;2024-03-02T11:17:23;100697.63;;;11.24;71.14
83492;BME280;73661;56.120;12.302;2024-03-02T11:19:50;100695.00;;;11.21;71.49
83492;BME280;73661;56.120;12.302;2024-03-02T11:22:18;100688.13;;;11.59;70.76
83492;BME280;73661;56.120;12.302;2024-03-02T11:24:52;100689.84;;;11.53;70.05
83492;BME280;73661;56.120;12.302;2024-03-02T11:33:00;100690.78;;;12.02;69.23
83492;BME280;73661;56.120;12.302;2024-03-02T11:35:31;100701.25;;;12.14;69.45
83492;BME280;73661;56.120;12.302;2024-03-02T11:37:57;100689.03;;;12.35;68.32
83492;BME280;73661;56.120;12.302;2024-03-02T11:40:25;100684.50;;;11.10;71.32
83492;BME280;73661;56.120;12.302;2024-03-02T11:42:52;100690.72;;;11.56;70.50
83492;BME280;73661;56.120;12.302;2024-03-02T11:45:26;100691.44;;;10.97;71.96
83492;BME280;73661;56.120;12.302;2024-03-02T11:47:57;100692.41;;;11.24;71.85
83492;BME280;73661;56.120;12.302;2024-03-02T11:50:41;100694.13;;;11.18;72.28
83492;BME280;73661;56.120;12.302;2024-03-02T11:53:08;100695.09;;;11.69;70.40
83492;BME280;73661;56.120;12.302;2024-03-02T11:55:37;100687.34;;;11.97;69.46
83492;BME280;73661;56.120;12.302;2024-03-02T11:58:07;100690.78;;;12.10;69.42
83492;BME280;73661;56.120;12.302;2024-03-02T12:00:33;100697.75;;;12.44;68.51
83492;BME280;73661;56.120;12.302;2024-03-02T12:03:04;100697.66;;;11.37;71.80
83492;BME280;73661;56.120;12.302;2024-03-02T12:05:31;100699.25;;;11.00;71.70
83492;BME280;73661;56.120;12.302;2024-03-02T12:08:05;100697.78;;;12.15;70.43
83492;BME280;73661;56.120;12.302;2024-03-02T12:10:33;100701.28;;;12.11;69.09
83492;BME280;73661;56.120;12.302;2024-03-02T12:13:04;100704.59;;;11.28;72.05
83492;BME280;73661;56.120;12.302;2024-03-02T12:15:34;100711.53;;;11.19;72.88
83492;BME280;73661;56.120;12.302;2024-03-02T12:18:02;100692.56;;;12.18;69.10
83492;BME280;73661;56.120;12.302;2024-03-02T12:20:31;100700.31;;;11.62;71.71
83492;BME280;73661;56.120;12.302;2024-03-02T12:22:59;100700.28;;;11.37;71.61
83492;BME280;73661;56.120;12.302;2024-03-02T12:25:26;100703.75;;;11.36;71.33
83492;BME280;73661;56.120;12.302;2024-03-02T12:27:55;100709.03;;;11.58;71.14
83492;BME280;73661;56.120;12.302;2024-03-02T12:30:22;100703.03;;;11.97;69.58
83492;BME280;73661;56.120;12.302;2024-03-02T12:32:49;100707.25;;;11.37;72.45
83492;BME280;73661;56.120;12.302;2024-03-02T12:35:15;100711.59;;;11.39;73.27
83492;BME280;73661;56.120;12.302;2024-03-02T12:37:47;100697.78;;;11.91;70.14
83492;BME280;73661;56.120;12.302;2024-03-02T12:40:15;100705.63;;;12.08;69.68
83492;BME280;73661;56.120;12.302;2024-03-02T12:42:43;100706.34;;;11.33;72.49
83492;BME280;73661;56.120;12.302;2024-03-02T12:45:09;100706.34;;;11.32;71.70
83492;BME280;73661;56.120;12.302;2024-03-02T12:47:35;100705.50;;;11.42;72.59
83492;BME280;73661;56.120;12.302;2024-03-02T12:50:03;100693.13;;;10.94;73.59
83492;BME280;73661;56.120;12.302;2024-03-02T12:52:30;100708.94;;;11.18;73.53
83492;BME280;73661;56.120;12.302;2024-03-02T12:54:59;100702.66;;;10.81;74.24
83492;BME280;73661;56.120;12.302;2024-03-02T12:57:27;100709.78;;;11.15;72.94